Time;durP1;ratioP1;P1;durP2;ratioP2;P2;SDS_P1;SDS_P2;PMS_P1;PMS_P2;Temp;Humidity;BMP_temperature;BMP_pressure;BME280_temperature;BME280_humidity;BME280_pressure;Samples;Min_cycle;Max_cycle;Signal;HPM_P1;HPM_P2
2023/09/19 00:00:20;;;;;;;;;;;;;;;;;;5042841;28;20000;-61
2023/09/19 00:02:47;;;;;;;;;;;;;;;;;;5049664;28;19936;-61
2023/09/19 00:05:13;;;;;;;;;;;;;;;;;;5043944;28;20000;-61
2023/09/19 00:07:40;;;;;;;;;;;;;;;;;;5049925;28;19925;-61
2023/09/19 00:10:08;;;;;;;;;;;;;;;;;;5040589;28;19921;-61
2023/09/19 00:12:34;;;;;;;;;;;;;;;;;;5049319;28;19928;-61
2023/09/19 00:15:00;;;;;;;;;;;;;;;;;;5045697;28;19921;-61
2023/09/19 00:17:26;;;;;;;;;;;;;;;;;;5040330;28;19978;-61
2023/09/19 00:19:52;;;;;;;;;;;;;;;;;;5036958;28;20351;-62
2023/09/19 00:22:18;;;;;;;;;;;;;;;;;;5047723;28;19931;-61
2023/09/19 00:24:45;;;;;;;;;;;;;;;;;;5037855;28;19976;-61
2023/09/19 00:27:11;;;;;;;;;;;;;;;;;;5047352;28;20072;-62
2023/09/19 00:29:37;;;;;;;;;;;;;;;;;;5038899;28;20350;-61
2023/09/19 00:32:04;;;;;;;;;;;;;;;;;;5045528;28;19974;-61
2023/09/19 00:34:29;;;;;;;;;;;;;;;;;;5043217;28;19920;-61
2023/09/19 00:36:55;;;;;;;;;;;;;;;;;;5049470;28;19932;-62
2023/09/19 00:39:21;;;;;;;;;;;;;;;;;;5040152;28;19932;-61
2023/09/19 00:41:47;;;;;;;;;;;;;;;;;;5037224;28;20302;-62
2023/09/19 00:44:15;;;;;;;;;;;;;;;;;;5042380;28;19928;-62
2023/09/19 00:46:42;;;;;;;;;;;;;;;;;;5034060;28;19929;-62
2023/09/19 00:49:08;;;;;;;;;;;;;;;;;;5049805;28;19925;-62
2023/09/19 00:51:35;;;;;;;;;;;;;;;;;;5047480;28;20496;-62
2023/09/19 00:54:01;;;;;;;;;;;;;;;;;;5046077;28;19928;-62
2023/09/19 00:56:27;;;;;;;;;;;;;;;;;;5039242;28;20273;-62
2023/09/19 00:58:53;;;;;;;;;;;;;;;;;;5043225;28;19927;-62
2023/09/19 01:01:19;;;;;;;;;;;;;;;;;;5041979;28;19925;-61
2023/09/19 01:03:45;;;;;;;;;;;;;;;;;;5028059;28;19933;-61
2023/09/19 01:06:12;;;;;;;;;;;;;;;;;;5050820;28;19925;-62
2023/09/19 01:08:38;;;;;;;;;;;;;;;;;;5043479;28;20020;-61
2023/09/19 01:11:04;;;;;;;;;;;;;;;;;;5041513;28;20016;-61
2023/09/19 01:13:30;;;;;;;;;;;;;;;;;;5036510;28;20291;-61
2023/09/19 01:15:56;;;;;;;;;;;;;;;;;;5041918;28;20566;-61
2023/09/19 01:18:22;;;;;;;;;;;;;;;;;;5042550;28;19968;-61
2023/09/19 01:20:48;;;;;;;;;;;;;;;;;;5041353;28;20071;-61
2023/09/19 01:23:14;;;;;;;;;;;;;;;;;;5033190;28;20387;-61
2023/09/19 01:25:40;;;;;;;;;;;;;;;;;;5042292;28;19925;-61
2023/09/19 01:28:07;;;;;;;;;;;;;;;;;;5034953;28;19925;-61
2023/09/19 01:30:33;;;;;;;;;;;;;;;;;;5044808;28;19921;-61
2023/09/19 01:32:59;;;;;;;;;;;;;;;;;;5034249;28;19932;-61
2023/09/19 01:35:25;;;;;;;;;;;;;;;;;;5037438;28;20012;-62
2023/09/19 01:37:53;;;;;;;;;;;;;;;;;;5033597;28;19920;-61
2023/09/19 01:40:23;;;;;;;;;;;;;;;;;;5049966;28;19925;-61
2023/09/19 01:42:50;;;;;;;;;;;;;;;;;;5048269;28;19959;-61
2023/09/19 01:45:16;;;;;;;;;;;;;;;;;;5046340;28;19925;-61
2023/09/19 01:47:43;;;;;;;;;;;;;;;;;;5050100;28;19925;-61
2023/09/19 01:50:10;;;;;;;;;;;;;;;;;;5049376;28;19920;-61
2023/09/19 01:52:36;;;;;;;;;;;;;;;;;;5047246;28;19929;-60
2023/09/19 01:55:05;;;;;;;;;;;;;;;;;;5038334;28;20015;-60
2023/09/19 01:57:32;;;;;;;;;;;;;;;;;;5038164;28;19959;-60
2023/09/19 01:59:58;;;;;;;;;;;;;;;;;;5045481;28;19921;-61
2023/09/19 02:02:24;;;;;;;;;;;;;;;;;;5042092;28;19948;-61
2023/09/19 02:04:50;;;;;;;;;;;;;;;;;;5044854;28;20738;-61
2023/09/19 02:07:16;;;;;;;;;;;;;;;;;;5038071;28;19925;-61
2023/09/19 02:09:42;;;;;;;;;;;;;;;;;;5041597;28;19925;-61
2023/09/19 02:12:08;;;;;;;;;;;;;;;;;;5034674;28;20000;-61
2023/09/19 02:14:35;;;;;;;;;;;;;;;;;;5038284;28;20016;-61
2023/09/19 02:17:02;;;;;;;;;;;;;;;;;;5033386;28;19921;-61
2023/09/19 02:19:29;;;;;;;;;;;;;;;;;;5037320;28;20015;-61
2023/09/19 02:21:55;;;;;;;;;;;;;;;;;;5034861;28;19940;-61
2023/09/19 02:24:21;;;;;;;;;;;;;;;;;;5040330;28;19924;-61
2023/09/19 02:26:47;;;;;;;;;;;;;;;;;;5033985;28;19925;-61
2023/09/19 02:29:14;;;;;;;;;;;;;;;;;;5040527;28;19983;-61
2023/09/19 02:31:40;;;;;;;;;;;;;;;;;;5042036;28;19924;-61
2023/09/19 02:34:06;;;;;;;;;;;;;;;;;;5030259;28;19980;-61
2023/09/19 02:36:32;;;;;;;;;;;;;;;;;;5037402;28;19932;-61
2023/09/19 02:38:58;;;;;;;;;;;;;;;;;;5036105;28;19924;-61
2023/09/19 02:41:24;;;;;;;;;;;;;;;;;;5035266;28;20279;-61
2023/09/19 02:43:50;;;;;;;;;;;;;;;;;;5021524;28;19994;-61
2023/09/19 02:46:16;;;;;;;;;;;;;;;;;;5044556;28;19931;-62
2023/09/19 02:48:42;;;;;;;;;;;;;;;;;;5042420;28;19948;-61
2023/09/19 02:51:08;;;;;;;;;;;;;;;;;;5040970;28;19921;-61
2023/09/19 02:53:35;;;;;;;;;;;;;;;;;;5049813;28;19924;-61
2023/09/19 02:56:03;;;;;;;;;;;;;;;;;;5041406;28;19928;-61
2023/09/19 02:58:30;;;;;;;;;;;;;;;;;;5036618;28;20333;-61
2023/09/19 03:00:56;;;;;;;;;;;;;;;;;;5037312;28;20413;-61
2023/09/19 03:03:22;;;;;;;;;;;;;;;;;;5042482;28;19978;-61
2023/09/19 03:05:48;;;;;;;;;;;;;;;;;;5043424;28;19957;-61
2023/09/19 03:08:17;;;;;;;;;;;;;;;;;;5042732;28;20641;-61
2023/09/19 03:10:44;;;;;;;;;;;;;;;;;;5040749;28;19925;-61
2023/09/19 03:13:09;;;;;;;;;;;;;;;;;;5043804;28;19921;-61
2023/09/19 03:15:38;;;;;;;;;;;;;;;;;;5040685;28;20314;-61
2023/09/19 03:18:04;;;;;;;;;;;;;;;;;;5043579;28;19932;-61
2023/09/19 03:20:30;;;;;;;;;;;;;;;;;;5034069;28;20259;-61
2023/09/19 03:22:57;;;;;;;;;;;;;;;;;;5039892;28;19932;-61
2023/09/19 03:25:23;;;;;;;;;;;;;;;;;;5039322;28;19925;-61
2023/09/19 03:27:49;;;;;;;;;;;;;;;;;;5037084;28;19921;-61
2023/09/19 03:30:14;;;;;;;;;;;;;;;;;;5041749;28;20288;-61
2023/09/19 03:32:40;;;;;;;;;;;;;;;;;;5022556;28;19982;-61
2023/09/19 03:35:06;;;;;;;;;;;;;;;;;;5047528;28;19975;-61
2023/09/19 03:37:35;;;;;;;;;;;;;;;;;;5043441;28;19921;-61
2023/09/19 03:40:04;;;;;;;;;;;;;;;;;;5047789;28;19921;-61
2023/09/19 03:42:30;;;;;;;;;;;;;;;;;;5042633;28;20309;-61
2023/09/19 03:44:56;;;;;;;;;;;;;;;;;;5039547;28;19951;-61
2023/09/19 03:47:23;;;;;;;;;;;;;;;;;;5046013;28;19921;-61
2023/09/19 03:49:49;;;;;;;;;;;;;;;;;;5047479;28;19928;-61
2023/09/19 03:52:17;;;;;;;;;;;;;;;;;;5043585;28;19929;-61
2023/09/19 03:54:44;;;;;;;;;;;;;;;;;;5047879;28;20058;-61
2023/09/19 03:57:10;;;;;;;;;;;;;;;;;;5051702;28;19924;-61
2023/09/19 03:59:36;;;;;;;;;;;;;;;;;;5037006;28;19922;-61
2023/09/19 04:02:02;;;;;;;;;;;;;;;;;;5035197;28;19936;-61
2023/09/19 04:04:29;;;;;;;;;;;;;;;;;;5054028;28;19927;-61
2023/09/19 04:06:55;;;;;;;;;;;;;;;;;;5043301;28;20279;-61
2023/09/19 04:09:21;;;;;;;;;;;;;;;;;;5041035;28;19928;-61
2023/09/19 04:11:47;;;;;;;;;;;;;;;;;;5034345;28;19925;-61
2023/09/19 04:14:12;;;;;;;;;;;;;;;;;;5046401;28;20528;-61
2023/09/19 04:16:38;;;;;;;;;;;;;;;;;;5034116;28;19947;-61
2023/09/19 04:19:05;;;;;;;;;;;;;;;;;;5043924;28;19928;-61
2023/09/19 04:21:31;;;;;;;;;;;;;;;;;;5052824;28;20299;-61
2023/09/19 04:23:57;;;;;;;;;;;;;;;;;;5040306;28;19921;-62
2023/09/19 04:26:25;;;;;;;;;;;;;;;;;;5050897;28;19996;-60
2023/09/19 04:28:51;;;;;;;;;;;;;;;;;;5052134;28;20365;-60
2023/09/19 04:31:19;;;;;;;;;;;;;;;;;;5050757;28;19921;-61
2023/09/19 04:33:45;;;;;;;;;;;;;;;;;;5048326;28;19921;-61
2023/09/19 04:36:13;;;;;;;;;;;;;;;;;;5045582;28;19921;-61
2023/09/19 04:38:38;;;;;;;;;;;;;;;;;;5041972;28;20003;-61
2023/09/19 04:41:04;;;;;;;;;;;;;;;;;;5044135;28;20012;-61
2023/09/19 04:43:30;;;;;;;;;;;;;;;;;;5035902;28;19936;-61
2023/09/19 04:45:56;;;;;;;;;;;;;;;;;;5039090;28;19929;-61
2023/09/19 04:48:24;;;;;;;;;;;;;;;;;;5046136;28;19921;-61
2023/09/19 04:50:50;;;;;;;;;;;;;;;;;;5042006;28;20348;-61
2023/09/19 04:53:17;;;;;;;;;;;;;;;;;;5047977;28;19973;-61
2023/09/19 04:55:43;;;;;;;;;;;;;;;;;;5039064;28;20367;-61
2023/09/19 04:58:09;;;;;;;;;;;;;;;;;;5035887;28;19928;-61
2023/09/19 05:00:35;;;;;;;;;;;;;;;;;;5039837;28;19928;-61
2023/09/19 05:03:04;;;;;;;;;;;;;;;;;;5037028;28;19925;-61
2023/09/19 05:05:30;;;;;;;;;;;;;;;;;;5046449;28;19921;-61
2023/09/19 05:07:56;;;;;;;;;;;;;;;;;;5047914;28;19925;-61
2023/09/19 05:10:21;;;;;;;;;;;;;;;;;;5043200;28;19925;-61
2023/09/19 05:12:50;;;;;;;;;;;;;;;;;;5035014;28;19932;-61
2023/09/19 05:15:19;;;;;;;;;;;;;;;;;;5035346;28;20401;-61
2023/09/19 05:17:45;;;;;;;;;;;;;;;;;;5051297;28;19925;-61
2023/09/19 05:20:29;;;;;;;;;;;;;;;;;;5039342;28;20482;-61
2023/09/19 05:22:54;;;;;;;;;;;;;;;;;;5051334;28;19925;-61
2023/09/19 05:25:20;;;;;;;;;;;;;;;;;;5047530;28;19925;-61
2023/09/19 05:27:46;;;;;;;;;;;;;;;;;;5038094;28;19921;-61
2023/09/19 05:30:14;;;;;;;;;;;;;;;;;;5052803;28;19932;-61
2023/09/19 05:32:41;;;;;;;;;;;;;;;;;;5035061;28;19964;-61
2023/09/19 05:35:09;;;;;;;;;;;;;;;;;;5041509;28;20389;-61
2023/09/19 05:37:36;;;;;;;;;;;;;;;;;;5050542;28;20404;-61
2023/09/19 05:40:02;;;;;;;;;;;;;;;;;;5053439;28;19922;-61
2023/09/19 05:42:28;;;;;;;;;;;;;;;;;;5047476;28;19935;-61
2023/09/19 05:44:54;;;;;;;;;;;;;;;;;;5037805;28;20337;-61
2023/09/19 05:47:22;;;;;;;;;;;;;;;;;;5040289;28;19921;-61
2023/09/19 05:49:49;;;;;;;;;;;;;;;;;;5043249;28;19920;-61
2023/09/19 05:52:17;;;;;;;;;;;;;;;;;;5046206;28;19994;-61
2023/09/19 05:54:43;;;;;;;;;;;;;;;;;;5036252;28;20377;-61
2023/09/19 05:57:12;;;;;;;;;;;;;;;;;;5040159;28;19921;-61
2023/09/19 05:59:39;;;;;;;;;;;;;;;;;;5040200;28;19920;-61
2023/09/19 06:02:06;;;;;;;;;;;;;;;;;;5038741;28;19958;-61
2023/09/19 06:04:32;;;;;;;;;;;;;;;;;;5038858;28;20438;-61
2023/09/19 06:06:58;;;;;;;;;;;;;;;;;;5039527;28;20011;-61
2023/09/19 06:09:24;;;;;;;;;;;;;;;;;;5038599;28;19921;-61
2023/09/19 06:11:51;;;;;;;;;;;;;;;;;;5035195;28;19921;-61
2023/09/19 06:14:17;;;;;;;;;;;;;;;;;;5039387;28;19971;-61
2023/09/19 06:16:44;;;;;;;;;;;;;;;;;;5048302;28;19921;-62
2023/09/19 06:19:10;;;;;;;;;;;;;;;;;;5035522;28;19932;-61
2023/09/19 06:21:35;;;;;;;;;;;;;;;;;;5042003;28;19929;-61
2023/09/19 06:24:02;;;;;;;;;;;;;;;;;;5033043;28;19921;-61
2023/09/19 06:26:28;;;;;;;;;;;;;;;;;;5045540;28;19968;-61
2023/09/19 06:28:55;;;;;;;;;;;;;;;;;;5038528;28;19921;-61
2023/09/19 06:31:22;;;;;;;;;;;;;;;;;;5033026;28;20357;-61
2023/09/19 06:33:48;;;;;;;;;;;;;;;;;;5035128;28;19921;-60
2023/09/19 06:36:15;;;;;;;;;;;;;;;;;;5040566;28;20058;-60
2023/09/19 06:38:41;;;;;;;;;;;;;;;;;;5043441;28;19924;-60
2023/09/19 06:41:09;;;;;;;;;;;;;;;;;;5041101;28;19928;-60
2023/09/19 06:43:35;;;;;;;;;;;;;;;;;;5030474;28;20658;-60
2023/09/19 06:46:01;;;;;;;;;;;;;;;;;;5038742;28;19925;-60
2023/09/19 06:48:29;;;;;;;;;;;;;;;;;;5042621;28;20051;-61
2023/09/19 06:50:55;;;;;;;;;;;;;;;;;;5037087;28;19929;-61
2023/09/19 06:53:23;;;;;;;;;;;;;;;;;;5041090;28;19932;-61
2023/09/19 06:55:49;;;;;;;;;;;;;;;;;;5039254;28;20369;-61
2023/09/19 06:58:16;;;;;;;;;;;;;;;;;;5038340;28;19929;-61
2023/09/19 07:00:42;;;;;;;;;;;;;;;;;;5038492;28;19921;-61
2023/09/19 07:03:11;;;;;;;;;;;;;;;;;;5054522;28;19951;-61
2023/09/19 07:05:37;;;;;;;;;;;;;;;;;;5035905;28;20000;-61
2023/09/19 07:08:03;;;;;;;;;;;;;;;;;;5032141;28;19925;-61
2023/09/19 07:10:29;;;;;;;;;;;;;;;;;;5037082;28;19929;-61
2023/09/19 07:12:55;;;;;;;;;;;;;;;;;;5037122;28;20597;-61
2023/09/19 07:15:23;;;;;;;;;;;;;;;;;;5038415;28;19927;-61
2023/09/19 07:17:49;;;;;;;;;;;;;;;;;;5034146;28;19982;-61
2023/09/19 07:20:16;;;;;;;;;;;;;;;;;;5035402;28;19936;-60
2023/09/19 07:22:42;;;;;;;;;;;;;;;;;;5037469;28;19932;-61
2023/09/19 07:25:08;;;;;;;;;;;;;;;;;;5031454;28;20613;-61
2023/09/19 07:27:33;;;;;;;;;;;;;;;;;;5043329;28;19932;-61
2023/09/19 07:29:59;;;;;;;;;;;;;;;;;;5037065;28;20441;-61
2023/09/19 07:32:25;;;;;;;;;;;;;;;;;;5031462;28;19925;-61
2023/09/19 07:34:51;;;;;;;;;;;;;;;;;;5031677;28;20617;-61
2023/09/19 07:37:18;;;;;;;;;;;;;;;;;;5034618;28;19975;-61
2023/09/19 07:39:44;;;;;;;;;;;;;;;;;;5031201;28;19921;-61
2023/09/19 07:42:11;;;;;;;;;;;;;;;;;;5029142;28;19968;-61
2023/09/19 07:44:37;;;;;;;;;;;;;;;;;;5038713;28;19925;-61
2023/09/19 07:47:03;;;;;;;;;;;;;;;;;;5038464;28;19932;-61
2023/09/19 07:49:29;;;;;;;;;;;;;;;;;;5035112;28;19921;-61
2023/09/19 07:51:57;;;;;;;;;;;;;;;;;;5040569;28;19991;-61
2023/09/19 07:54:23;;;;;;;;;;;;;;;;;;5036988;28;20321;-61
2023/09/19 07:56:48;;;;;;;;;;;;;;;;;;5047534;28;19965;-61
2023/09/19 07:59:16;;;;;;;;;;;;;;;;;;5050335;28;19928;-61
2023/09/19 08:01:44;;;;;;;;;;;;;;;;;;5045718;28;19925;-61
2023/09/19 08:04:10;;;;;;;;;;;;;;;;;;5046708;28;19921;-61
2023/09/19 08:06:38;;;;;;;;;;;;;;;;;;5050419;28;20024;-60
2023/09/19 08:09:10;;;;;;;;;;;;;;;;;;5051002;28;19921;-61
2023/09/19 08:11:36;;;;;;;;;;;;;;;;;;5045210;28;19925;-60
2023/09/19 08:14:02;;;;;;;;;;;;;;;;;;5050477;28;19931;-60
2023/09/19 08:16:28;;;;;;;;;;;;;;;;;;5047498;28;19943;-60
2023/09/19 08:18:55;;;;;;;;;;;;;;;;;;5047129;28;20362;-60
2023/09/19 08:21:21;;;;;;;;;;;;;;;;;;5047046;28;19921;-61
2023/09/19 08:23:47;;;;;;;;;;;;;;;;;;5051575;28;19942;-61
2023/09/19 08:26:13;;;;;;;;;;;;;;;;;;5047006;28;19924;-60
2023/09/19 08:28:40;;;;;;;;;;;;;;;;;;5049755;28;20320;-61
2023/09/19 08:31:06;;;;;;;;;;;;;;;;;;5038700;28;20327;-61
2023/09/19 08:33:32;;;;;;;;;;;;;;;;;;5033615;28;19931;-61
2023/09/19 08:35:58;;;;;;;;;;;;;;;;;;5033250;28;19987;-61
2023/09/19 08:38:25;;;;;;;;;;;;;;;;;;5041628;28;19964;-61
2023/09/19 08:40:51;;;;;;;;;;;;;;;;;;5040149;28;19922;-61
2023/09/19 08:43:17;;;;;;;;;;;;;;;;;;5043925;28;19931;-61
2023/09/19 08:45:43;;;;;;;;;;;;;;;;;;5038495;28;19947;-60
2023/09/19 08:48:11;;;;;;;;;;;;;;;;;;5045745;28;19924;-61
2023/09/19 08:50:37;;;;;;;;;;;;;;;;;;5041917;28;19972;-61
2023/09/19 08:53:03;;;;;;;;;;;;;;;;;;5037637;28;19967;-61
2023/09/19 08:55:28;;;;;;;;;;;;;;;;;;5039739;28;19928;-61
2023/09/19 08:57:54;;;;;;;;;;;;;;;;;;5041322;28;19920;-61
2023/09/19 09:00:21;;;;;;;;;;;;;;;;;;5043143;28;19931;-61
2023/09/19 09:02:47;;;;;;;;;;;;;;;;;;5022452;28;19970;-61
2023/09/19 09:05:14;;;;;;;;;;;;;;;;;;5040326;28;19920;-61
2023/09/19 09:07:40;;;;;;;;;;;;;;;;;;5050289;28;19920;-61
2023/09/19 09:10:06;;;;;;;;;;;;;;;;;;5039761;28;19928;-61
2023/09/19 09:12:32;;;;;;;;;;;;;;;;;;5043084;28;19931;-61
2023/09/19 09:14:58;;;;;;;;;;;;;;;;;;5048571;28;19995;-61
2023/09/19 09:17:24;;;;;;;;;;;;;;;;;;5049595;28;20428;-61
2023/09/19 09:19:51;;;;;;;;;;;;;;;;;;5041896;28;19968;-61
2023/09/19 09:22:18;;;;;;;;;;;;;;;;;;5039570;28;20043;-61
2023/09/19 09:24:44;;;;;;;;;;;;;;;;;;5045902;28;21685;-61
2023/09/19 09:27:10;;;;;;;;;;;;;;;;;;5041040;28;19929;-60
2023/09/19 09:29:36;;;;;;;;;;;;;;;;;;5030672;28;19925;-61
2023/09/19 09:32:02;;;;;;;;;;;;;;;;;;5036598;28;20051;-60
2023/09/19 09:34:28;;;;;;;;;;;;;;;;;;5039637;28;19924;-60
2023/09/19 09:36:54;;;;;;;;;;;;;;;;;;5035202;28;19925;-60
2023/09/19 09:39:24;;;;;;;;;;;;;;;;;;5038130;28;19952;-60
2023/09/19 09:41:50;;;;;;;;;;;;;;;;;;5038446;28;19925;-60
2023/09/19 09:44:19;;;;;;;;;;;;;;;;;;5036876;28;20039;-61
2023/09/19 09:49:26;;;;;;;;;;;;;;;;;;5036616;28;19931;-61
2023/09/19 09:51:59;;;;;;;;;;;;;;;;;;5040947;28;20059;-61
2023/09/19 09:54:28;;;;;;;;;;;;;;;;;;5052320;28;19991;-61
2023/09/19 09:56:54;;;;;;;;;;;;;;;;;;5039426;28;19931;-61
2023/09/19 09:59:23;;;;;;;;;;;;;;;;;;5040601;28;19921;-61
2023/09/19 10:01:50;;;;;;;;;;;;;;;;;;5041042;28;20011;-61
2023/09/19 10:04:17;;;;;;;;;;;;;;;;;;5037681;28;20397;-61
2023/09/19 10:06:47;;;;;;;;;;;;;;;;;;5035865;28;20345;-61
2023/09/19 10:09:16;;;;;;;;;;;;;;;;;;5023690;28;19928;-61
2023/09/19 10:11:43;;;;;;;;;;;;;;;;;;5039292;28;19975;-61
2023/09/19 10:14:10;;;;;;;;;;;;;;;;;;5043782;28;19921;-61
2023/09/19 10:16:36;;;;;;;;;;;;;;;;;;5035507;28;19929;-60
2023/09/19 10:19:02;;;;;;;;;;;;;;;;;;5046055;28;19929;-60
2023/09/19 10:21:29;;;;;;;;;;;;;;;;;;5037227;28;19928;-60
2023/09/19 10:23:56;;;;;;;;;;;;;;;;;;5037335;28;19976;-60
2023/09/19 10:26:24;;;;;;;;;;;;;;;;;;5042539;28;19925;-60
2023/09/19 10:28:50;;;;;;;;;;;;;;;;;;5033958;28;20333;-61
2023/09/19 10:31:16;;;;;;;;;;;;;;;;;;5041290;28;19973;-60
2023/09/19 10:33:42;;;;;;;;;;;;;;;;;;5035668;28;19936;-60
2023/09/19 10:36:10;;;;;;;;;;;;;;;;;;5038493;28;19921;-61
2023/09/19 10:38:36;;;;;;;;;;;;;;;;;;5038413;28;19925;-61
2023/09/19 10:41:02;;;;;;;;;;;;;;;;;;5035998;28;19927;-61
2023/09/19 10:43:28;;;;;;;;;;;;;;;;;;5034278;28;20040;-60
2023/09/19 10:45:54;;;;;;;;;;;;;;;;;;5033976;28;20326;-61
2023/09/19 10:48:25;;;;;;;;;;;;;;;;;;5041131;28;19948;-61
2023/09/19 10:50:51;;;;;;;;;;;;;;;;;;5036679;28;19927;-61
2023/09/19 10:53:17;;;;;;;;;;;;;;;;;;5039148;28;19925;-61
2023/09/19 10:55:43;;;;;;;;;;;;;;;;;;5037169;28;20018;-61
2023/09/19 10:58:14;;;;;;;;;;;;;;;;;;5040161;28;19920;-62
2023/09/19 11:00:41;;;;;;;;;;;;;;;;;;5041740;28;20382;-61
2023/09/19 11:03:09;;;;;;;;;;;;;;;;;;5033812;28;20218;-61
2023/09/19 11:05:37;;;;;;;;;;;;;;;;;;5037001;28;19935;-61
2023/09/19 11:08:03;;;;;;;;;;;;;;;;;;5036209;28;19968;-61
2023/09/19 11:10:29;;;;;;;;;;;;;;;;;;5037153;28;19956;-61
2023/09/19 11:12:56;;;;;;;;;;;;;;;;;;5035287;28;20389;-62
2023/09/19 11:15:22;;;;;;;;;;;;;;;;;;5039335;28;19970;-61
2023/09/19 11:17:49;;;;;;;;;;;;;;;;;;5031397;28;19920;-61
2023/09/19 11:20:24;;;;;;;;;;;;;;;;;;5041076;28;19967;-61
2023/09/19 11:22:56;;;;;;;;;;;;;;;;;;5039008;28;19935;-61
2023/09/19 11:25:22;;;;;;;;;;;;;;;;;;5038294;28;20344;-61
2023/09/19 11:27:48;;;;;;;;;;;;;;;;;;5036202;28;20021;-61
2023/09/19 11:30:14;;;;;;;;;;;;;;;;;;5037672;28;19933;-61
2023/09/19 11:32:41;;;;;;;;;;;;;;;;;;5037348;28;20285;-61
2023/09/19 11:35:08;;;;;;;;;;;;;;;;;;5043549;28;20011;-61
2023/09/19 11:37:34;;;;;;;;;;;;;;;;;;5035563;28;19921;-61
2023/09/19 11:40:00;;;;;;;;;;;;;;;;;;5035504;28;19984;-62
2023/09/19 11:42:27;;;;;;;;;;;;;;;;;;5041329;28;20335;-62
2023/09/19 11:44:55;;;;;;;;;;;;;;;;;;5042101;28;20317;-60
2023/09/19 11:47:24;;;;;;;;;;;;;;;;;;5036610;28;19928;-61
2023/09/19 11:49:50;;;;;;;;;;;;;;;;;;5043080;28;19936;-61
2023/09/19 11:52:16;;;;;;;;;;;;;;;;;;5044595;28;19921;-61
2023/09/19 11:54:42;;;;;;;;;;;;;;;;;;5035987;28;19936;-61
2023/09/19 11:57:08;;;;;;;;;;;;;;;;;;5040883;28;20530;-62
2023/09/19 11:59:36;;;;;;;;;;;;;;;;;;5038447;28;19925;-61
2023/09/19 12:02:02;;;;;;;;;;;;;;;;;;5036571;28;19925;-62
2023/09/19 12:04:27;;;;;;;;;;;;;;;;;;5040010;28;20282;-61
2023/09/19 12:06:56;;;;;;;;;;;;;;;;;;5043994;28;20011;-61
2023/09/19 12:09:22;;;;;;;;;;;;;;;;;;5054911;22;20335;-66
2023/09/19 12:11:49;;;;;;;;;;;;;;;;;;5053065;28;20060;-66
2023/09/19 12:14:15;;;;;;;;;;;;;;;;;;5052899;28;19921;-66
2023/09/19 12:16:42;;;;;;;;;;;;;;;;;;5053067;28;19920;-66
2023/09/19 12:19:07;;;;;;;;;;;;;;;;;;5052598;28;19924;-65
2023/09/19 12:21:36;;;;;;;;;;;;;;;;;;5051673;28;19921;-64
2023/09/19 12:24:04;;;;;;;;;;;;;;;;;;5053288;28;19974;-66
2023/09/19 12:26:33;;;;;;;;;;;;;;;;;;5052425;28;19928;-65
2023/09/19 12:29:01;;;;;;;;;;;;;;;;;;5051763;28;19928;-65
2023/09/19 12:31:27;;;;;;;;;;;;;;;;;;5054135;28;20372;-65
2023/09/19 12:33:53;;;;;;;;;;;;;;;;;;5053289;28;19924;-65
2023/09/19 12:36:21;;;;;;;;;;;;;;;;;;5053550;28;20320;-65
2023/09/19 12:38:47;;;;;;;;;;;;;;;;;;5053182;28;20497;-65
2023/09/19 12:41:13;;;;;;;;;;;;;;;;;;5052308;28;19921;-66
2023/09/19 12:43:39;;;;;;;;;;;;;;;;;;5052075;28;20005;-66
2023/09/19 12:46:05;;;;;;;;;;;;;;;;;;5052884;28;19947;-66
2023/09/19 12:48:32;;;;;;;;;;;;;;;;;;5054100;28;19996;-65
2023/09/19 12:50:58;;;;;;;;;;;;;;;;;;5051428;28;19921;-65
2023/09/19 12:53:23;;;;;;;;;;;;;;;;;;5052533;28;19925;-65
2023/09/19 12:55:50;;;;;;;;;;;;;;;;;;5055223;28;20366;-64
2023/09/19 12:58:18;;;;;;;;;;;;;;;;;;5052803;28;20067;-65
2023/09/19 13:00:44;;;;;;;;;;;;;;;;;;5052690;28;19925;-64
2023/09/19 13:03:10;;;;;;;;;;;;;;;;;;5051485;28;19978;-67
2023/09/19 13:05:36;;;;;;;;;;;;;;;;;;5050685;28;19925;-67
2023/09/19 13:08:02;;;;;;;;;;;;;;;;;;5049276;28;19921;-66
2023/09/19 13:10:28;;;;;;;;;;;;;;;;;;5050487;28;19932;-66
2023/09/19 13:12:54;;;;;;;;;;;;;;;;;;5048529;28;20012;-67
2023/09/19 13:15:22;;;;;;;;;;;;;;;;;;5049333;28;20011;-66
2023/09/19 13:17:48;;;;;;;;;;;;;;;;;;5046207;28;19932;-66
2023/09/19 13:20:15;;;;;;;;;;;;;;;;;;5050758;28;20028;-66
2023/09/19 13:22:42;;;;;;;;;;;;;;;;;;5045258;28;19921;-66
2023/09/19 13:25:12;;;;;;;;;;;;;;;;;;5047217;28;19931;-67
2023/09/19 13:27:38;;;;;;;;;;;;;;;;;;5049513;28;19947;-67
2023/09/19 13:30:04;;;;;;;;;;;;;;;;;;5044940;28;19924;-67
2023/09/19 13:32:30;;;;;;;;;;;;;;;;;;5042047;28;19925;-66
2023/09/19 13:34:57;;;;;;;;;;;;;;;;;;5045776;28;20364;-66
2023/09/19 13:37:23;;;;;;;;;;;;;;;;;;5047942;28;19929;-67
2023/09/19 13:39:49;;;;;;;;;;;;;;;;;;5046090;28;19924;-67
2023/09/19 13:42:16;;;;;;;;;;;;;;;;;;5040243;28;19921;-67
2023/09/19 13:44:43;;;;;;;;;;;;;;;;;;5044034;28;19933;-67
2023/09/19 13:47:10;;;;;;;;;;;;;;;;;;5047612;28;19956;-67
2023/09/19 13:49:36;;;;;;;;;;;;;;;;;;5047727;28;19971;-67
2023/09/19 13:52:04;;;;;;;;;;;;;;;;;;5045803;28;20409;-67
2023/09/19 13:54:30;;;;;;;;;;;;;;;;;;5039272;28;19964;-67
2023/09/19 13:56:56;;;;;;;;;;;;;;;;;;5045660;28;20632;-66
2023/09/19 13:59:23;;;;;;;;;;;;;;;;;;5043873;28;19928;-67
2023/09/19 14:01:49;;;;;;;;;;;;;;;;;;5041644;28;19929;-67
2023/09/19 14:04:15;;;;;;;;;;;;;;;;;;5045801;28;19929;-67
2023/09/19 14:06:41;;;;;;;;;;;;;;;;;;5048604;28;19991;-67
2023/09/19 14:09:08;;;;;;;;;;;;;;;;;;5039479;28;20395;-67
2023/09/19 14:11:34;;;;;;;;;;;;;;;;;;5045846;28;19975;-67
2023/09/19 14:14:00;;;;;;;;;;;;;;;;;;5044509;28;19975;-68
2023/09/19 14:16:29;;;;;;;;;;;;;;;;;;5044851;28;19920;-67
2023/09/19 14:18:55;;;;;;;;;;;;;;;;;;5043069;28;20032;-67
2023/09/19 14:21:21;;;;;;;;;;;;;;;;;;5042371;28;20599;-67
2023/09/19 14:23:49;;;;;;;;;;;;;;;;;;5041622;28;19921;-67
2023/09/19 14:26:16;;;;;;;;;;;;;;;;;;5047397;28;19924;-67
2023/09/19 14:28:42;;;;;;;;;;;;;;;;;;5054045;28;19935;-68
2023/09/19 14:31:07;;;;;;;;;;;;;;;;;;5047251;28;20437;-67
2023/09/19 14:33:33;;;;;;;;;;;;;;;;;;5047177;28;19964;-67
2023/09/19 14:35:59;;;;;;;;;;;;;;;;;;5048820;28;19927;-67
2023/09/19 14:38:26;;;;;;;;;;;;;;;;;;5043025;28;19925;-67
2023/09/19 14:40:52;;;;;;;;;;;;;;;;;;5046916;28;19928;-67
2023/09/19 14:43:18;;;;;;;;;;;;;;;;;;5019358;28;20384;-67
2023/09/19 14:45:44;;;;;;;;;;;;;;;;;;5038683;28;19935;-67
2023/09/19 14:48:10;;;;;;;;;;;;;;;;;;5038203;28;20294;-67
2023/09/19 14:50:36;;;;;;;;;;;;;;;;;;5042481;28;19924;-67
2023/09/19 14:53:03;;;;;;;;;;;;;;;;;;5026531;28;19925;-67
2023/09/19 14:55:34;;;;;;;;;;;;;;;;;;5047278;28;21936;-67
2023/09/19 14:58:00;;;;;;;;;;;;;;;;;;5048042;28;19925;-67
2023/09/19 15:00:27;;;;;;;;;;;;;;;;;;5028773;28;19925;-67
2023/09/19 15:02:55;;;;;;;;;;;;;;;;;;5044766;28;19924;-67
2023/09/19 15:05:20;;;;;;;;;;;;;;;;;;5043181;28;20063;-67
2023/09/19 15:07:46;;;;;;;;;;;;;;;;;;5050837;28;20015;-66
2023/09/19 15:10:13;;;;;;;;;;;;;;;;;;5041560;28;20375;-67
2023/09/19 15:12:39;;;;;;;;;;;;;;;;;;5045305;28;19931;-67
2023/09/19 15:15:08;;;;;;;;;;;;;;;;;;5044238;28;19921;-67
2023/09/19 15:17:34;;;;;;;;;;;;;;;;;;5047741;28;19936;-68
2023/09/19 15:20:01;;;;;;;;;;;;;;;;;;5049615;28;20273;-67
2023/09/19 15:22:27;;;;;;;;;;;;;;;;;;5044368;28;20389;-67
2023/09/19 15:24:53;;;;;;;;;;;;;;;;;;5046036;28;19925;-67
2023/09/19 15:27:19;;;;;;;;;;;;;;;;;;5045205;28;19960;-66
2023/09/19 15:29:45;;;;;;;;;;;;;;;;;;5049938;28;20286;-66
2023/09/19 15:32:11;;;;;;;;;;;;;;;;;;5047556;28;19920;-66
2023/09/19 15:34:37;;;;;;;;;;;;;;;;;;5055383;28;20023;-67
2023/09/19 15:37:03;;;;;;;;;;;;;;;;;;5051444;28;19925;-67
2023/09/19 15:39:33;;;;;;;;;;;;;;;;;;5053539;28;19921;-67
2023/09/19 15:41:59;;;;;;;;;;;;;;;;;;5048085;28;19925;-66
2023/09/19 15:44:26;;;;;;;;;;;;;;;;;;5051364;28;19955;-67
2023/09/19 15:46:52;;;;;;;;;;;;;;;;;;5051411;28;20429;-67
2023/09/19 15:49:18;;;;;;;;;;;;;;;;;;5050622;28;20024;-67
2023/09/19 15:51:44;;;;;;;;;;;;;;;;;;5050902;28;19921;-67
2023/09/19 15:54:10;;;;;;;;;;;;;;;;;;5049971;28;19967;-66
2023/09/19 15:56:36;;;;;;;;;;;;;;;;;;5063023;28;20549;-67
2023/09/19 15:59:02;;;;;;;;;;;;;;;;;;5042810;28;19986;-66
2023/09/19 16:01:28;;;;;;;;;;;;;;;;;;5055351;28;20033;-66
2023/09/19 16:03:57;;;;;;;;;;;;;;;;;;5046524;28;19929;-67
2023/09/19 16:06:23;;;;;;;;;;;;;;;;;;5031287;28;19925;-67
2023/09/19 16:08:49;;;;;;;;;;;;;;;;;;5045507;28;19973;-67
2023/09/19 16:11:15;;;;;;;;;;;;;;;;;;5047914;28;20023;-68
2023/09/19 16:13:41;;;;;;;;;;;;;;;;;;5048275;28;19964;-68
2023/09/19 16:16:08;;;;;;;;;;;;;;;;;;5048890;28;19990;-68
2023/09/19 16:18:34;;;;;;;;;;;;;;;;;;5066592;28;20393;-68
2023/09/19 16:20:59;;;;;;;;;;;;;;;;;;5046613;28;19967;-68
2023/09/19 16:23:25;;;;;;;;;;;;;;;;;;5043580;28;19924;-68
2023/09/19 16:25:51;;;;;;;;;;;;;;;;;;5046217;28;20465;-68
2023/09/19 16:28:17;;;;;;;;;;;;;;;;;;5048744;28;19924;-68
2023/09/19 16:30:43;;;;;;;;;;;;;;;;;;5060632;28;20247;-68
2023/09/19 16:33:09;;;;;;;;;;;;;;;;;;5051525;28;19927;-68
2023/09/19 16:35:35;;;;;;;;;;;;;;;;;;5047099;28;20402;-67
2023/09/19 16:38:01;;;;;;;;;;;;;;;;;;5049338;28;19931;-68
2023/09/19 16:40:27;;;;;;;;;;;;;;;;;;5047278;28;19972;-67
2023/09/19 16:42:53;;;;;;;;;;;;;;;;;;5047827;28;20007;-67